createdAt,value
2023-01-27T00:01:16.739Z,12.68
2023-01-27T00:03:43.313Z,11.73
2023-01-27T00:06:12.176Z,13.63
2023-01-27T00:08:39.015Z,13.35
2023-01-27T00:11:20.997Z,13.85
2023-01-27T00:13:47.701Z,12.55
2023-01-27T00:16:14.359Z,12.68
2023-01-27T00:18:40.966Z,12.65
2023-01-27T00:21:22.848Z,13.48
2023-01-27T00:24:09.463Z,13.27
2023-01-27T00:26:36.076Z,13.93
2023-01-27T00:29:02.653Z,12.65
2023-01-27T00:31:44.485Z,12.63
2023-01-27T00:34:11.196Z,12.90
2023-01-27T00:36:40.499Z,14.15
2023-01-27T00:39:11.844Z,13.18
2023-01-27T00:41:41.718Z,13.20
2023-01-27T00:44:13.392Z,14.80
2023-01-27T00:46:40.800Z,14.73
2023-01-27T00:49:07.553Z,13.43
2023-01-27T00:51:34.299Z,12.60
2023-01-27T00:54:03.048Z,13.25
2023-01-27T00:56:30.125Z,13.30
2023-01-27T00:58:57.135Z,14.02
2023-01-27T01:01:23.940Z,12.73
2023-01-27T01:03:50.913Z,11.00
2023-01-27T01:06:19.522Z,12.77
2023-01-27T01:08:46.710Z,13.73
2023-01-27T01:11:15.614Z,12.48
2023-01-27T01:13:43.645Z,13.40
2023-01-27T01:16:15.198Z,13.35
2023-01-27T01:18:43.024Z,13.30
2023-01-27T01:21:10.698Z,14.13
2023-01-27T01:23:40.432Z,12.00
2023-01-27T01:26:07.350Z,13.75
2023-01-27T01:28:33.979Z,14.20
2023-01-27T01:31:11.579Z,13.30
2023-01-27T01:33:38.511Z,13.07
2023-01-27T01:36:09.019Z,13.00
2023-01-27T01:38:35.571Z,13.32
2023-01-27T01:41:02.592Z,14.20
2023-01-27T01:43:29.154Z,13.85
2023-01-27T01:45:57.854Z,14.02
2023-01-27T01:48:31.808Z,13.23
2023-01-27T01:51:14.973Z,13.13
2023-01-27T01:54:04.329Z,12.93
2023-01-27T01:56:44.396Z,12.38
2023-01-27T01:59:17.530Z,13.52
2023-01-27T02:01:44.365Z,13.15
2023-01-27T02:04:18.117Z,12.52
2023-01-27T02:07:05.246Z,13.82
2023-01-27T02:09:31.958Z,12.80
2023-01-27T02:11:59.129Z,12.40
2023-01-27T02:14:25.987Z,13.18
2023-01-27T02:16:53.090Z,13.52
2023-01-27T02:19:27.634Z,13.30
2023-01-27T02:21:56.762Z,13.70
2023-01-27T02:24:34.610Z,12.65
2023-01-27T02:27:01.328Z,13.32
2023-01-27T02:29:28.811Z,13.23
2023-01-27T02:31:55.432Z,13.13
2023-01-27T02:34:27.434Z,13.68
2023-01-27T02:36:58.296Z,13.00
2023-01-27T02:39:29.719Z,13.60
2023-01-27T02:41:57.824Z,13.50
2023-01-27T02:44:24.459Z,12.52
2023-01-27T02:46:51.037Z,12.88
2023-01-27T02:49:17.620Z,11.65
2023-01-27T02:51:44.235Z,12.93
2023-01-27T02:54:10.958Z,12.90
2023-01-27T02:56:37.515Z,13.60
2023-01-27T02:59:04.088Z,13.75
2023-01-27T03:01:32.627Z,12.65
2023-01-27T03:03:59.651Z,12.13
2023-01-27T03:06:26.404Z,12.98
2023-01-27T03:08:53.062Z,12.23
2023-01-27T03:11:39.577Z,11.65
2023-01-27T03:14:08.608Z,13.38
2023-01-27T03:16:50.590Z,11.48
2023-01-27T03:19:17.204Z,11.63
2023-01-27T03:21:45.237Z,13.18
2023-01-27T03:24:12.228Z,12.35
2023-01-27T03:26:38.771Z,12.32
2023-01-27T03:29:20.679Z,12.02
2023-01-27T03:31:47.278Z,12.18
2023-01-27T03:34:13.959Z,12.32
2023-01-27T03:36:55.862Z,12.68
2023-01-27T03:39:37.635Z,11.50
2023-01-27T03:42:19.689Z,11.05
2023-01-27T03:45:01.530Z,12.75
2023-01-27T03:47:28.175Z,12.35
2023-01-27T03:49:54.740Z,12.45
2023-01-27T03:52:21.284Z,13.48
2023-01-27T03:54:48.804Z,12.65
2023-01-27T03:57:15.399Z,12.55
2023-01-27T03:59:42.138Z,12.55
2023-01-27T04:02:23.935Z,12.70
2023-01-27T04:05:05.712Z,12.50
2023-01-27T04:07:36.101Z,12.02
2023-01-27T04:10:05.089Z,12.35
2023-01-27T04:12:32.423Z,13.55
2023-01-27T04:14:59.033Z,13.45
2023-01-27T04:17:25.677Z,13.48
2023-01-27T04:19:52.259Z,12.45
2023-01-27T04:22:18.868Z,14.52
2023-01-27T04:24:45.408Z,13.60
2023-01-27T04:27:15.361Z,13.55
2023-01-27T04:29:42.950Z,13.25
2023-01-27T04:32:11.549Z,13.93
2023-01-27T04:34:39.152Z,12.40
2023-01-27T04:37:08.053Z,13.63
2023-01-27T04:39:38.547Z,11.70
2023-01-27T04:42:08.582Z,12.13
2023-01-27T04:44:35.220Z,12.23
2023-01-27T04:47:02.376Z,12.02
2023-01-27T04:49:28.970Z,13.02
2023-01-27T04:51:55.954Z,13.55
2023-01-27T04:54:22.581Z,12.07
2023-01-27T04:56:59.701Z,11.75
2023-01-27T04:59:26.388Z,11.40
2023-01-27T05:01:53.264Z,12.50
2023-01-27T05:04:19.916Z,12.15
2023-01-27T05:06:46.556Z,13.35
2023-01-27T05:09:13.201Z,12.50
2023-01-27T05:11:39.947Z,12.60
2023-01-27T05:14:06.617Z,12.02
2023-01-27T05:16:33.366Z,13.15
2023-01-27T05:19:00.021Z,12.52
2023-01-27T05:21:31.027Z,14.13
2023-01-27T05:23:58.146Z,12.98
2023-01-27T05:26:27.474Z,12.82
2023-01-27T05:28:56.761Z,12.10
2023-01-27T05:31:26.583Z,12.43
2023-01-27T05:33:54.592Z,11.73
2023-01-27T05:36:22.957Z,13.10
2023-01-27T05:38:50.229Z,12.32
2023-01-27T05:41:18.321Z,12.73
2023-01-27T05:43:46.939Z,12.38
2023-01-27T05:46:15.733Z,10.35
2023-01-27T05:48:44.972Z,12.13
2023-01-27T05:51:14.876Z,12.15
2023-01-27T05:53:42.316Z,12.07
2023-01-27T05:56:11.502Z,12.05
2023-01-27T05:58:39.210Z,12.95
2023-01-27T06:01:08.399Z,13.13
2023-01-27T06:03:35.190Z,11.93
2023-01-27T06:06:01.906Z,12.00
2023-01-27T06:08:28.455Z,12.48
2023-01-27T06:10:55.011Z,13.05
2023-01-27T06:13:23.048Z,12.48
2023-01-27T06:15:50.436Z,11.82
2023-01-27T06:18:19.029Z,11.18
2023-01-27T06:20:46.306Z,12.55
2023-01-27T06:23:15.185Z,12.77
2023-01-27T06:25:45.031Z,11.75
2023-01-27T06:28:17.143Z,12.13
2023-01-27T06:30:53.749Z,12.70
2023-01-27T06:33:20.308Z,11.93
2023-01-27T06:35:47.441Z,13.32
2023-01-27T06:38:15.499Z,13.00
2023-01-27T06:40:43.179Z,12.70
2023-01-27T06:43:13.919Z,13.70
2023-01-27T06:45:40.706Z,15.43
2023-01-27T06:48:08.662Z,16.95
2023-01-27T06:50:36.480Z,15.75
2023-01-27T06:53:06.444Z,14.18
2023-01-27T06:55:33.393Z,14.15
2023-01-27T06:58:01.764Z,13.88
2023-01-27T07:00:28.648Z,14.00
2023-01-27T07:02:56.483Z,15.45
2023-01-27T07:05:23.043Z,14.75
2023-01-27T07:07:49.652Z,14.95
2023-01-27T07:10:16.739Z,14.45
2023-01-27T07:12:43.504Z,14.20
2023-01-27T07:15:10.728Z,14.63
2023-01-27T07:17:37.928Z,13.82
2023-01-27T07:20:06.338Z,13.25
2023-01-27T07:22:32.936Z,12.55
2023-01-27T07:24:59.535Z,13.38
2023-01-27T07:27:26.298Z,13.60
2023-01-27T07:29:52.988Z,12.73
2023-01-27T07:32:19.636Z,13.30
2023-01-27T07:34:46.361Z,12.80
2023-01-27T07:37:13.918Z,13.07
2023-01-27T07:39:40.924Z,12.18
2023-01-27T07:42:08.618Z,12.13
2023-01-27T07:44:35.268Z,11.45
2023-01-27T07:47:01.875Z,11.73
2023-01-27T07:49:28.502Z,12.10
2023-01-27T07:51:55.064Z,12.23
2023-01-27T07:54:21.680Z,12.32
2023-01-27T07:56:48.254Z,13.23
2023-01-27T07:59:14.914Z,12.82
2023-01-27T08:01:41.973Z,13.23
2023-01-27T08:04:09.257Z,13.57
2023-01-27T08:06:39.470Z,14.05
2023-01-27T08:09:06.666Z,12.45
2023-01-27T08:11:34.254Z,13.20
2023-01-27T08:14:01.008Z,11.85
2023-01-27T08:16:27.716Z,12.77
2023-01-27T08:18:54.650Z,13.57
2023-01-27T08:21:21.558Z,12.52
2023-01-27T08:23:48.642Z,13.20
2023-01-27T08:26:15.223Z,12.77
2023-01-27T08:28:41.935Z,11.52
2023-01-27T08:31:11.741Z,11.50
2023-01-27T08:33:39.285Z,11.57
2023-01-27T08:36:10.642Z,11.95
2023-01-27T08:38:37.703Z,13.02
2023-01-27T08:41:09.956Z,11.40
2023-01-27T08:43:40.711Z,13.02
2023-01-27T08:46:07.954Z,12.35
2023-01-27T08:48:35.266Z,12.82
2023-01-27T08:51:02.701Z,15.65
2023-01-27T08:53:29.983Z,16.00
2023-01-27T08:55:58.645Z,14.30
2023-01-27T08:58:25.760Z,15.25
2023-01-27T09:00:52.368Z,15.25
2023-01-27T09:03:19.333Z,14.38
2023-01-27T09:05:47.397Z,14.38
2023-01-27T09:08:14.668Z,14.05
2023-01-27T09:10:42.045Z,15.48
2023-01-27T09:13:09.279Z,14.63
2023-01-27T09:15:37.055Z,14.05
2023-01-27T09:18:06.580Z,15.02
2023-01-27T09:20:34.610Z,14.32
2023-01-27T09:23:01.793Z,15.35
2023-01-27T09:25:28.399Z,15.20
2023-01-27T09:27:56.276Z,15.27
2023-01-27T09:30:24.100Z,15.30
2023-01-27T09:32:51.229Z,13.77
2023-01-27T09:35:18.359Z,14.02
2023-01-27T09:37:53.673Z,14.07
2023-01-27T09:40:43.329Z,13.32
2023-01-27T09:43:40.395Z,14.50
2023-01-27T09:46:13.270Z,13.43
2023-01-27T09:49:04.876Z,14.68
2023-01-27T09:51:46.832Z,13.45
2023-01-27T09:54:19.471Z,13.80
2023-01-27T09:57:01.392Z,13.75
2023-01-27T09:59:46.330Z,14.65
2023-01-27T10:02:28.790Z,15.00
2023-01-27T10:05:09.495Z,14.90
2023-01-27T10:07:52.432Z,13.93
2023-01-27T10:10:54.311Z,14.63
2023-01-27T10:13:40.738Z,15.02
2023-01-27T10:16:23.885Z,15.52
2023-01-27T10:19:01.600Z,15.93
2023-01-27T10:21:59.828Z,16.05
2023-01-27T10:24:41.884Z,14.25
2023-01-27T10:27:24.632Z,15.90
2023-01-27T10:30:10.471Z,14.10
2023-01-27T10:32:39.175Z,13.70
2023-01-27T10:35:28.162Z,14.63
2023-01-27T10:38:17.651Z,14.95
2023-01-27T10:40:51.396Z,13.55
2023-01-27T10:43:19.009Z,15.60
2023-01-27T10:46:07.793Z,15.23
2023-01-27T10:48:43.754Z,15.85
2023-01-27T10:51:36.671Z,14.60
2023-01-27T10:54:09.078Z,15.27
2023-01-27T10:56:44.207Z,14.68
2023-01-27T10:59:33.309Z,13.73
2023-01-27T11:02:06.646Z,14.35
2023-01-27T11:04:43.041Z,15.07
2023-01-27T11:07:17.793Z,15.68
2023-01-27T11:09:48.497Z,14.43
2023-01-27T11:12:16.271Z,14.43
2023-01-27T11:14:51.924Z,14.63
2023-01-27T11:17:38.655Z,15.80
2023-01-27T11:20:32.495Z,14.57
2023-01-27T11:23:04.598Z,16.92
2023-01-27T11:25:59.820Z,16.38
2023-01-27T11:28:46.234Z,15.98
2023-01-27T11:31:38.114Z,17.05
2023-01-27T11:34:21.174Z,16.83
2023-01-27T11:36:49.951Z,19.00
2023-01-27T11:39:18.218Z,17.27
2023-01-27T11:41:52.208Z,16.90
2023-01-27T11:44:22.416Z,16.67
2023-01-27T11:46:49.947Z,16.30
2023-01-27T11:49:22.345Z,16.48
2023-01-27T11:51:49.388Z,16.75
2023-01-27T11:54:18.217Z,17.80
2023-01-27T11:56:48.464Z,17.30
2023-01-27T11:59:24.269Z,18.35
2023-01-27T12:01:59.761Z,16.83
2023-01-27T12:04:53.088Z,18.67
2023-01-27T12:07:27.803Z,16.77
2023-01-27T12:09:54.424Z,17.38
2023-01-27T12:12:25.273Z,17.38
2023-01-27T12:14:54.888Z,17.00
2023-01-27T12:17:40.250Z,17.98
2023-01-27T12:20:15.087Z,17.33
2023-01-27T12:22:49.496Z,17.42
2023-01-27T12:25:22.831Z,16.77
2023-01-27T12:27:53.632Z,17.83
2023-01-27T12:30:23.785Z,15.93
2023-01-27T12:32:51.533Z,16.77
2023-01-27T12:35:23.474Z,17.33
2023-01-27T12:37:57.316Z,17.40
2023-01-27T12:40:25.887Z,17.35
2023-01-27T12:43:13.666Z,15.38
2023-01-27T12:45:44.657Z,16.25
2023-01-27T12:48:18.456Z,16.13
2023-01-27T12:50:55.982Z,15.98
2023-01-27T12:53:27.689Z,16.30
2023-01-27T12:55:56.347Z,16.65
2023-01-27T12:58:39.877Z,15.98
2023-01-27T13:01:22.966Z,14.55
2023-01-27T13:03:53.672Z,15.88
2023-01-27T13:06:31.094Z,16.17
2023-01-27T13:08:59.328Z,16.38
2023-01-27T13:11:35.284Z,15.43
2023-01-27T13:14:01.861Z,16.23
2023-01-27T13:16:30.260Z,16.00
2023-01-27T13:18:59.392Z,16.15
2023-01-27T13:21:33.357Z,16.10
2023-01-27T13:24:10.862Z,15.98
2023-01-27T13:26:40.397Z,16.27
2023-01-27T13:29:16.631Z,16.17
2023-01-27T13:31:59.579Z,15.98
2023-01-27T13:34:45.729Z,15.80
2023-01-27T13:37:19.205Z,15.30
2023-01-27T13:40:14.835Z,14.98
2023-01-27T13:42:48.906Z,14.40
2023-01-27T13:45:28.839Z,15.07
2023-01-27T13:48:02.191Z,15.18
2023-01-27T13:50:36.175Z,14.77
2023-01-27T13:53:04.213Z,15.70
2023-01-27T13:55:46.827Z,15.52
2023-01-27T13:58:19.376Z,15.15
2023-01-27T14:00:55.114Z,15.45
2023-01-27T14:03:52.384Z,15.13
2023-01-27T14:06:20.998Z,15.52
2023-01-27T14:08:53.162Z,15.60
2023-01-27T14:11:34.744Z,15.68
2023-01-27T14:14:31.851Z,15.65
2023-01-27T14:17:13.751Z,13.50
2023-01-27T14:20:00.163Z,12.77
2023-01-27T14:22:39.162Z,14.15
2023-01-27T14:25:32.587Z,13.77
2023-01-27T14:28:10.198Z,13.55
2023-01-27T14:30:43.126Z,12.82
2023-01-27T14:33:35.484Z,12.65
2023-01-27T14:36:22.981Z,13.38
2023-01-27T14:38:59.520Z,11.32
2023-01-27T14:41:56.609Z,10.88
2023-01-27T14:44:44.394Z,13.10
2023-01-27T14:47:31.355Z,12.32
2023-01-27T14:50:28.197Z,12.02
2023-01-27T14:53:11.410Z,12.05
2023-01-27T14:56:08.681Z,12.30
2023-01-27T14:58:44.463Z,11.50
2023-01-27T15:01:33.718Z,11.75
2023-01-27T15:04:18.268Z,11.48
2023-01-27T15:06:56.669Z,11.05
2023-01-27T15:09:38.253Z,10.55
2023-01-27T15:12:33.784Z,10.57
2023-01-27T15:15:00.373Z,11.85
2023-01-27T15:17:42.256Z,13.20
2023-01-27T15:20:46.585Z,11.63
2023-01-27T15:23:45.177Z,12.57
2023-01-27T15:26:14.538Z,11.82
2023-01-27T15:28:43.012Z,12.30
2023-01-27T15:31:24.097Z,12.65
2023-01-27T15:34:08.794Z,12.43
2023-01-27T15:36:40.179Z,11.93
2023-01-27T15:39:21.871Z,10.90
2023-01-27T15:42:05.591Z,11.18
2023-01-27T15:44:38.100Z,12.13
2023-01-27T15:47:08.387Z,12.05
2023-01-27T15:49:41.716Z,12.20
2023-01-27T15:52:30.169Z,12.10
2023-01-27T15:55:01.381Z,12.07
2023-01-27T15:57:33.831Z,12.45
2023-01-27T16:00:07.436Z,11.55
2023-01-27T16:02:44.139Z,12.20
2023-01-27T16:05:27.230Z,9.90
2023-01-27T16:07:59.789Z,10.00
2023-01-27T16:10:31.221Z,8.70
2023-01-27T16:13:20.897Z,7.80
2023-01-27T16:15:47.617Z,7.97
2023-01-27T16:18:15.184Z,7.45
2023-01-27T16:20:41.736Z,8.57
2023-01-27T16:23:14.811Z,7.47
2023-01-27T16:25:46.251Z,7.47
2023-01-27T16:28:19.304Z,6.47
2023-01-27T16:31:02.004Z,6.00
2023-01-27T16:33:34.378Z,6.10
2023-01-27T16:36:23.203Z,5.85
2023-01-27T16:38:50.597Z,4.68
2023-01-27T16:41:37.792Z,4.80
2023-01-27T16:44:19.996Z,5.38
2023-01-27T16:46:54.644Z,5.38
2023-01-27T16:49:24.180Z,4.78
2023-01-27T16:52:13.536Z,5.95
2023-01-27T16:54:43.067Z,5.40
2023-01-27T16:57:24.968Z,5.30
2023-01-27T16:59:52.493Z,5.60
2023-01-27T17:02:22.377Z,5.10
2023-01-27T17:04:51.949Z,5.90
2023-01-27T17:07:18.595Z,6.25
2023-01-27T17:09:57.564Z,6.22
2023-01-27T17:12:34.294Z,6.20
2023-01-27T17:15:16.178Z,6.15
2023-01-27T17:17:43.573Z,6.20
2023-01-27T17:20:24.053Z,6.45
2023-01-27T17:22:54.317Z,6.25
2023-01-27T17:25:35.350Z,5.53
2023-01-27T17:28:07.293Z,6.57
2023-01-27T17:30:39.450Z,6.22
2023-01-27T17:33:14.807Z,6.68
2023-01-27T17:35:41.719Z,7.18
2023-01-27T17:38:24.749Z,6.90
2023-01-27T17:40:54.369Z,6.97
2023-01-27T17:43:21.989Z,6.07
2023-01-27T17:46:01.658Z,13.27
2023-01-27T17:48:28.335Z,10.90
2023-01-27T17:50:54.921Z,8.27
2023-01-27T17:53:24.798Z,6.65
2023-01-27T17:55:52.485Z,6.38
2023-01-27T17:58:24.563Z,6.05
2023-01-27T18:00:52.870Z,6.50
2023-01-27T18:03:25.736Z,5.93
2023-01-27T18:05:54.577Z,5.75
2023-01-27T18:08:23.661Z,5.65
2023-01-27T18:10:52.031Z,4.90
2023-01-27T18:13:18.612Z,6.07
2023-01-27T18:15:46.248Z,5.80
2023-01-27T18:18:20.810Z,6.03
2023-01-27T18:21:14.222Z,6.40
2023-01-27T18:23:58.334Z,6.07
2023-01-27T18:26:28.443Z,5.97
2023-01-27T18:28:58.776Z,5.60
2023-01-27T18:31:30.397Z,5.50
2023-01-27T18:34:01.945Z,6.32
2023-01-27T18:36:34.686Z,7.05
2023-01-27T18:39:02.993Z,7.25
2023-01-27T18:41:32.832Z,6.53
2023-01-27T18:44:01.158Z,7.40
2023-01-27T18:46:27.813Z,6.35
2023-01-27T18:48:55.704Z,6.43
2023-01-27T18:51:22.332Z,7.53
2023-01-27T18:53:48.950Z,7.72
2023-01-27T18:56:15.501Z,6.60
2023-01-27T18:58:42.196Z,7.80
2023-01-27T19:01:19.127Z,7.93
2023-01-27T19:03:45.764Z,8.27
2023-01-27T19:06:16.789Z,7.47
2023-01-27T19:08:44.160Z,7.15
2023-01-27T19:11:15.152Z,7.10
2023-01-27T19:13:44.078Z,8.32
2023-01-27T19:16:16.737Z,8.35
2023-01-27T19:18:45.031Z,9.07
2023-01-27T19:21:14.272Z,7.93
2023-01-27T19:23:49.573Z,7.30
2023-01-27T19:26:19.249Z,7.60
2023-01-27T19:28:49.057Z,7.93
2023-01-27T19:31:15.941Z,7.13
2023-01-27T19:33:44.949Z,7.88
2023-01-27T19:36:22.465Z,7.97
2023-01-27T19:39:16.890Z,9.07
2023-01-27T19:41:46.006Z,8.30
2023-01-27T19:44:13.513Z,8.30
2023-01-27T19:46:41.319Z,8.77
2023-01-27T19:49:15.910Z,8.18
2023-01-27T19:51:42.521Z,8.85
2023-01-27T19:54:10.088Z,8.10
2023-01-27T19:56:37.309Z,8.48
2023-01-27T19:59:04.153Z,10.43
2023-01-27T20:01:30.908Z,9.05
2023-01-27T20:03:57.468Z,8.50
2023-01-27T20:06:27.512Z,8.55
2023-01-27T20:08:56.214Z,9.43
2023-01-27T20:11:38.157Z,9.13
2023-01-27T20:14:09.591Z,8.15
2023-01-27T20:16:36.209Z,9.60
2023-01-27T20:19:02.986Z,8.82
2023-01-27T20:21:31.488Z,9.07
2023-01-27T20:23:58.199Z,9.15
2023-01-27T20:26:24.759Z,9.43
2023-01-27T20:28:51.832Z,9.55
2023-01-27T20:31:22.725Z,9.48
2023-01-27T20:33:50.258Z,9.75
2023-01-27T20:36:21.384Z,9.43
2023-01-27T20:38:48.733Z,9.52
2023-01-27T20:41:17.993Z,10.60
2023-01-27T20:43:44.636Z,9.73
2023-01-27T20:46:17.313Z,10.32
2023-01-27T20:48:47.166Z,10.25
2023-01-27T20:51:15.490Z,10.27
2023-01-27T20:53:45.452Z,10.30
2023-01-27T20:56:15.385Z,9.95
2023-01-27T20:58:42.197Z,9.80
2023-01-27T21:01:14.128Z,10.35
2023-01-27T21:03:41.946Z,10.98
2023-01-27T21:06:10.650Z,10.05
2023-01-27T21:08:37.734Z,10.13
2023-01-27T21:11:07.122Z,11.77
2023-01-27T21:13:33.800Z,11.10
2023-01-27T21:16:01.742Z,10.15
2023-01-27T21:18:28.411Z,11.85
2023-01-27T21:20:59.438Z,10.77
2023-01-27T21:23:28.534Z,12.15
2023-01-27T21:25:55.294Z,12.35
2023-01-27T21:28:22.271Z,11.68
2023-01-27T21:30:49.205Z,12.05
2023-01-27T21:33:17.039Z,10.55
2023-01-27T21:35:43.624Z,11.60
2023-01-27T21:38:10.244Z,11.60
2023-01-27T21:40:36.821Z,11.63
2023-01-27T21:43:18.575Z,12.55
2023-01-27T21:45:45.112Z,11.82
2023-01-27T21:48:11.692Z,14.27
2023-01-27T21:50:38.616Z,13.27
2023-01-27T21:53:10.487Z,11.75
2023-01-27T21:55:37.177Z,12.50
2023-01-27T21:58:03.925Z,11.50
2023-01-27T22:00:30.582Z,12.65
2023-01-27T22:02:59.464Z,11.55
2023-01-27T22:05:27.512Z,12.50
2023-01-27T22:07:54.668Z,13.25
2023-01-27T22:10:24.813Z,12.73
2023-01-27T22:12:51.818Z,13.32
2023-01-27T22:15:19.909Z,13.60
2023-01-27T22:17:47.749Z,12.82
2023-01-27T22:20:16.234Z,11.77
2023-01-27T22:22:43.944Z,12.40
2023-01-27T22:25:14.003Z,12.32
2023-01-27T22:27:42.066Z,12.13
2023-01-27T22:30:10.000Z,12.43
2023-01-27T22:32:36.646Z,13.25
2023-01-27T22:35:03.570Z,13.20
2023-01-27T22:37:30.962Z,13.13
2023-01-27T22:39:57.539Z,13.23
2023-01-27T22:42:24.119Z,14.77
2023-01-27T22:44:52.180Z,14.63
2023-01-27T22:47:19.293Z,13.43
2023-01-27T22:49:45.816Z,14.18
2023-01-27T22:52:12.424Z,14.50
2023-01-27T22:54:38.985Z,13.48
2023-01-27T22:57:05.543Z,15.27
2023-01-27T22:59:32.105Z,14.00
2023-01-27T23:01:58.678Z,14.30
2023-01-27T23:04:25.251Z,14.07
2023-01-27T23:06:51.896Z,13.95
2023-01-27T23:09:18.535Z,13.52
2023-01-27T23:11:45.217Z,13.20
2023-01-27T23:14:11.803Z,14.25
2023-01-27T23:16:38.507Z,13.70
2023-01-27T23:19:05.209Z,13.45
2023-01-27T23:21:31.891Z,13.60
2023-01-27T23:23:58.566Z,13.50
2023-01-27T23:26:25.306Z,14.38
2023-01-27T23:28:51.953Z,14.43
2023-01-27T23:31:18.587Z,14.55
2023-01-27T23:33:45.239Z,15.32
2023-01-27T23:36:13.027Z,13.55
2023-01-27T23:38:39.728Z,15.23
2023-01-27T23:41:11.343Z,14.68
2023-01-27T23:43:38.221Z,15.57
2023-01-27T23:46:05.121Z,15.68
2023-01-27T23:48:31.743Z,14.80
2023-01-27T23:50:58.382Z,14.77
2023-01-27T23:53:24.991Z,12.90
2023-01-27T23:55:57.113Z,12.40
2023-01-27T23:58:24.141Z,14.13
